Aérodrome :
LOGIN :

S'inscrire | Disclaimer

   EN    FR    IT 

 










Légende :    VFR   VFR Marginal   IFR   IFR Intensif   IFR Très Intensif
Visi : 
Plafond : 
>= 8 km
>= 3000ft
5 à 8 km
1000 à 3000 ft
1500m à 5 km
500 à 1000 ft
800 à 1500m
200 à 500 ft
< 800m
< 200 ft
Symboles :   Orages  Brouillard  Fortes neiges  Fortes précipitations  Vent > 20 kt
SIGMETs :   Divers  Orages  Givrage  Turbulence  Onde Orograph.  Cendres Volcan.







- Altitude de l'aérodrome : 11 ft
- Code IATA : MJV


LELC - Murcia San Javier

DERNIER METAR :
  • 211000Z 29012G23KT 260V330 CAVOK 19/06 Q1025 NOSIG

METARs EXPIRÉS :
  • 210900Z 29015G25KT 260V320 CAVOK 18/05 Q1024 NOSIG
  • 210800Z 29018KT 260V320 CAVOK 17/04 Q1023 NOSIG

TAF TAF LELC
Valide du 21 à 06h jusqu'au 22 à 06h UTC


210500Z 2106/2206 31012KT CAVOK TX22/2114Z TN13/2206Z
PROB40
TEMPO 2106/2114 31015G25KT
PROB40
TEMPO 2116/2120 31002KT
Pas de NOTAMs connus pour ce terrain.
3 SIGMETs publiés pour la FIR Barcelona (LECB) :
 
Onde orographique forte
LECB SIGMET 4 VALID 210731/211100 LEVA
LECB BARCELONA FIR/UIR SEV MTW FCST WI N4130 E00040 - N4040 W00010 - N4020 E00010 - N4120 E00120 - N4130 E00040 FL090/330 STNR NC=
Onde orographique forte
LECB SIGMET 3 VALID 210729/211100 LEVA
LECB BARCELONA FIR/UIR SEV MTW FCST N OF LINE N4230 W00010 - N4210 E00210 FL120/350 STNR NC=
Turbulence forte
LECB SIGMET 2 VALID 210700/211100 LEVA
LECB BARCELONA FIR SEV TURB FCST WI N4120 E00120 - N4020 W00010 - N4050 W00020 - N4140 E001 - N4120 E00120 SFC/FL090 STNR NC=



MET'MAP, la Météo Aéronautique d'un coup d'oeil ! - Copyright ORBIFLY Décembre 2007 - Disclaimer

ORBIFLY MET'MAP TEAM :

Programmation & Développement : Alexandra Zaïnal
Conception & Développement : Baudouin d'Aumeries
Co-Programmation & Développement : Marc-Olivier Méhu
Soutien technique & logistique : Manuel Goepfert

Contact : metmap@orbifly.com




SOURCES & CREDITS :

   NOAA